This is the latest recevied weather packets stored in our database for station/object VE3MJM-WX. If no packets are shown the sender has not sent any weather packets the latest 10 day(s).
| Time | Temp. | Humidity | Pressure | Rain* | Wind** | Luminosity | Snow |
|---|---|---|---|---|---|---|---|
| 1777773476 | 0° C | 71% | 1011.2 hPa | 0 mm | - | - | - |
| 1777772574 | 0.56° C | 65% | 1011 hPa | 0 mm | - | - | - |
| 1777771671 | 0.56° C | 67% | 1010.9 hPa | 0 mm | - | - | - |
| 1777770768 | 1.11° C | 64% | 1010.9 hPa | 0 mm | - | - | - |
| 1777769866 | 2.22° C | 58% | 1010.7 hPa | 0 mm | - | - | - |
| 1777768963 | 3.33° C | 51% | 1010.5 hPa | 0 mm | - | - | - |
| 1777768061 | 3.89° C | 47% | 1010.4 hPa | 0 mm | - | - | - |
| 1777767158 | 4.44° C | 45% | 1010.2 hPa | 0 mm | - | - | - |
| 1777766256 | 5° C | 44% | 1010 hPa | 0 mm | - | - | - |
| 1777765353 | 5° C | 44% | 1010.1 hPa | 0 mm | - | - | - |
| 1777764450 | 5.56° C | 40% | 1010 hPa | 0 mm | - | - | - |
| 1777763548 | 5.56° C | 38% | 1009.9 hPa | 0 mm | - | - | - |
| 1777762645 | 5.56° C | 38% | 1010 hPa | 0 mm | - | - | - |
| 1777761743 | 6.11° C | 41% | 1009.9 hPa | 0 mm | - | - | - |
| 1777760840 | 6.11° C | 39% | 1009.9 hPa | 0 mm | - | - | - |
| 1777759938 | 6.11° C | 43% | 1009.8 hPa | 0 mm | - | - | - |
| 1777759035 | 6.11° C | 44% | 1009.9 hPa | 0 mm | - | - | - |
| 1777758133 | 5.56° C | 47% | 1009.8 hPa | 0 mm | - | - | - |
| 1777757230 | 5.56° C | 49% | 1009.8 hPa | 0 mm | - | - | - |
| 1777756327 | 5.56° C | 47% | 1009.8 hPa | 0 mm | - | - | - |
| 1777755425 | 5° C | 49% | 1010.1 hPa | 0 mm | - | - | - |
| 1777754522 | 5° C | 50% | 1010.1 hPa | 0 mm | - | - | - |
| 1777753620 | 5° C | 54% | 1010.3 hPa | 0 mm | - | - | - |
| 1777752717 | 4.44° C | 67% | 1010.4 hPa | 0 mm | - | - | - |
| 1777751815 | 4.44° C | 57% | 1010.7 hPa | 0 mm | - | - | - |
* Rain latest hour (hover to see other rain measurements)
** Current wind speed in m/s (hover to see current wind gust speed)